| time (UTC) | temp C | wind direction | speed KPH | gust KPH | rain 1hr cm | rain 24hr cm | rain mn cm | humidity % | barometer mb |
| 20260904001144 | 22 | 50 | 0.0 | 1.6 | 0.00 | 0.46 | 0.46 | 99 | 1012.3 |
| 20260904000639 | 22 | 59 | 1.6 | 1.6 | 0.00 | 0.46 | 0.46 | 99 | 1012.5 |
| 20260904000135 | 22 | 315 | 0.0 | 0.0 | 0.00 | 0.46 | 0.46 | 99 | 1012.3 |
| 20260903235634 | 22 | 315 | 0.0 | 3.2 | 0.00 | 0.46 | 0.46 | 99 | 1012.4 |
| 20260903235130 | 22 | 322 | 1.6 | 3.2 | 0.00 | 0.46 | 0.46 | 99 | 1012.2 |
| 20260903234625 | 22 | 37 | 0.0 | 0.0 | 0.00 | 0.46 | 0.46 | 99 | 1012.2 |
| 20260903234121 | 22 | 37 | 0.0 | 0.0 | 0.00 | 0.46 | 0.46 | 99 | 1012.3 |
| 20260903233617 | 22 | 6 | 0.0 | 0.0 | 0.00 | 0.46 | 0.46 | 99 | 1012.5 |
| 20260903233113 | 22 | 50 | 0.0 | 0.0 | 0.00 | 0.46 | 0.46 | 98 | 1012.5 |
| 20260903232607 | 23 | 50 | 0.0 | 0.0 | 0.00 | 0.46 | 0.46 | 98 | 1012.6 |
| 20260903232103 | 23 | 309 | 0.0 | 1.6 | 0.00 | 0.46 | 0.46 | 98 | 1012.6 |
| 20260903231556 | 23 | 299 | 0.0 | 1.6 | 0.00 | 0.46 | 0.46 | 98 | 1012.5 |
| 20260903231051 | 23 | 343 | 0.0 | 1.6 | 0.00 | 0.46 | 0.46 | 98 | 1012.6 |
| 20260903230548 | 23 | 321 | 0.0 | 0.0 | 0.00 | 0.46 | 0.46 | 98 | 1012.5 |
| 20260903230045 | 23 | 322 | 0.0 | 3.2 | 0.00 | 0.46 | 0.46 | 98 | 1012.5 |
| 20260903225537 | 23 | 322 | 1.6 | 1.6 | 0.00 | 0.46 | 0.46 | 98 | 1012.3 |
| 20260903225033 | 23 | 315 | 1.6 | 3.2 | 0.00 | 0.46 | 0.46 | 97 | 1012.3 |
| 20260903224530 | 23 | 315 | 0.0 | 0.0 | 0.00 | 0.46 | 0.46 | 97 | 1012.2 |
| 20260903224025 | 23 | 300 | 0.0 | 1.6 | 0.00 | 0.46 | 0.46 | 97 | 1012.1 |
| 20260903223524 | 24 | 309 | 0.0 | 0.0 | 0.00 | 0.46 | 0.46 | 96 | 1012.1 |
| 20260903223024 | 24 | 303 | 1.6 | 3.2 | 0.00 | 0.46 | 0.46 | 95 | 1012.0 |
| 20260903222520 | 24 | 308 | 1.6 | 3.2 | 0.00 | 0.46 | 0.46 | 95 | 1012.0 |
| 20260903222018 | 24 | 295 | 3.2 | 3.2 | 0.00 | 0.46 | 0.46 | 94 | 1012.3 |
| 20260903221514 | 24 | 295 | 1.6 | 3.2 | 0.00 | 0.46 | 0.46 | 94 | 1011.9 |
| 20260903221011 | 25 | 302 | 3.2 | 3.2 | 0.00 | 0.46 | 0.46 | 93 | 1011.8 |
| 20260903220510 | 25 | 287 | 3.2 | 4.8 | 0.00 | 0.46 | 0.46 | 93 | 1011.7 |
| 20260903220010 | 25 | 315 | 1.6 | 3.2 | 0.00 | 0.46 | 0.46 | 93 | 1011.6 |
| 20260903215505 | 25 | 295 | 3.2 | 3.2 | 0.00 | 0.46 | 0.46 | 92 | 1011.7 |
| 20260903215003 | 25 | 304 | 3.2 | 4.8 | 0.00 | 0.46 | 0.46 | 91 | 1011.7 |
| 20260903214459 | 26 | 293 | 1.6 | 1.6 | 0.00 | 0.46 | 0.46 | 86 | 1011.8 |
| 20260903213958 | 27 | 320 | 1.6 | 1.6 | 0.00 | 0.46 | 0.46 | 85 | 1011.8 |
| 20260903213454 | 26 | 25 | 0.0 | 1.6 | 0.00 | 0.46 | 0.46 | 80 | 1011.7 |
| 20260903212950 | 27 | 296 | 0.0 | 1.6 | 0.00 | 0.46 | 0.46 | 80 | 1011.9 |
| 20260903212445 | 27 | 340 | 1.6 | 3.2 | 0.00 | 0.46 | 0.46 | 78 | 1011.9 |
| 20260903211940 | 26 | 343 | 1.6 | 6.4 | 0.00 | 0.46 | 0.46 | 82 | 1012.0 |
| 20260903211435 | 27 | 349 | 1.6 | 4.8 | 0.00 | 0.46 | 0.46 | 78 | 1011.7 |
| 20260903210932 | 28 | 255 | 3.2 | 3.2 | 0.00 | 0.46 | 0.46 | 77 | 1011.9 |
| 20260903210431 | 28 | 314 | 3.2 | 3.2 | 0.00 | 0.46 | 0.46 | 79 | 1012.1 |
| 20260903205927 | 28 | 296 | 1.6 | 3.2 | 0.00 | 0.46 | 0.46 | 79 | 1012.0 |
| 20260903205426 | 28 | 350 | 0.0 | 3.2 | 0.00 | 0.46 | 0.46 | 77 | 1012.2 |
| 20260903204920 | 28 | 170 | 3.2 | 3.2 | 0.00 | 0.46 | 0.46 | 74 | 1012.2 |
| 20260903204417 | 28 | 0 | 1.6 | 4.8 | 0.00 | 0.46 | 0.46 | 74 | 1012.2 |
| 20260903203913 | 28 | 236 | 0.0 | 6.4 | 0.00 | 0.46 | 0.46 | 72 | 1012.2 |
| 20260903203408 | 28 | 330 | 3.2 | 4.8 | 0.00 | 0.46 | 0.46 | 76 | 1012.2 |
| 20260903202907 | 27 | 343 | 0.0 | 3.2 | 0.00 | 0.46 | 0.46 | 77 | 1012.3 |
| 20260903202404 | 27 | 282 | 4.8 | 6.4 | 0.00 | 0.46 | 0.46 | 77 | 1012.4 |
| 20260903201903 | 27 | 313 | 3.2 | 9.7 | 0.00 | 0.46 | 0.46 | 76 | 1012.2 |
| 20260903201359 | 28 | 284 | 14.5 | 17.7 | 0.00 | 0.46 | 0.46 | 75 | 1012.5 |
| 20260903200858 | 28 | 214 | 9.7 | 9.7 | 0.00 | 0.46 | 0.46 | 73 | 1012.5 |
| 20260903200353 | 28 | 224 | 8.0 | 9.7 | 0.00 | 0.46 | 0.46 | 72 | 1012.4 |
| 20260903195848 | 28 | 235 | 3.2 | 6.4 | 0.00 | 0.46 | 0.46 | 74 | 1012.5 |
| 20260903195344 | 28 | 272 | 3.2 | 8.0 | 0.00 | 0.46 | 0.46 | 72 | 1012.5 |
| 20260903194838 | 27 | 325 | 3.2 | 6.4 | 0.00 | 0.46 | 0.46 | 77 | 1012.4 |
| 20260903194334 | 28 | 32 | 0.0 | 3.2 | 0.00 | 0.46 | 0.46 | 75 | 1012.2 |
| 20260903193830 | 27 | 211 | 4.8 | 8.0 | 0.00 | 0.46 | 0.46 | 74 | 1012.5 |
| 20260903193326 | 28 | 336 | 3.2 | 8.0 | 0.00 | 0.46 | 0.46 | 75 | 1012.0 |
| 20260903192821 | 27 | 143 | 3.2 | 3.2 | 0.00 | 0.46 | 0.46 | 76 | 1012.5 |
| 20260903192316 | 27 | 254 | 6.4 | 12.9 | 0.00 | 0.46 | 0.46 | 74 | 1012.5 |
| 20260903191813 | 27 | 56 | 0.0 | 3.2 | 0.00 | 0.46 | 0.46 | 78 | 1012.6 |
| 20260903191308 | 27 | 247 | 6.4 | 11.3 | 0.00 | 0.46 | 0.46 | 78 | 1012.7 |
| 20260903190807 | 27 | 252 | 4.8 | 6.4 | 0.00 | 0.46 | 0.46 | 75 | 1012.6 |
| 20260903190303 | 28 | 248 | 3.2 | 6.4 | 0.00 | 0.46 | 0.46 | 75 | 1012.6 |
| 20260903185757 | 27 | 271 | 4.8 | 12.9 | 0.00 | 0.46 | 0.46 | 77 | 1012.9 |
| 20260903185256 | 26 | 236 | 3.2 | 3.2 | 0.00 | 0.46 | 0.46 | 78 | 1012.8 |
| 20260903184753 | 26 | 333 | 0.0 | 4.8 | 0.00 | 0.46 | 0.46 | 81 | 1013.2 |
| 20260903184249 | 26 | 19 | 1.6 | 1.6 | 0.00 | 0.46 | 0.46 | 82 | 1012.9 |
| 20260903183744 | 26 | 339 | 0.0 | 3.2 | 0.00 | 0.46 | 0.46 | 84 | 1012.9 |
| 20260903183238 | 26 | 323 | 3.2 | 6.4 | 0.00 | 0.46 | 0.46 | 80 | 1012.8 |
| 20260903182737 | 26 | 8 | 3.2 | 3.2 | 0.00 | 0.46 | 0.46 | 81 | 1012.9 |
| 20260903182232 | 26 | 272 | 4.8 | 8.0 | 0.00 | 0.46 | 0.46 | 78 | 1013.3 |
| 20260903181731 | 26 | 257 | 3.2 | 4.8 | 0.00 | 0.46 | 0.46 | 80 | 1013.3 |
| 20260903181226 | 26 | 154 | 0.0 | 6.4 | 0.00 | 0.46 | 0.46 | 79 | 1013.2 |
| 20260903180722 | 26 | 215 | 6.4 | 9.7 | 0.00 | 0.46 | 0.46 | 79 | 1013.0 |
| 20260903180221 | 27 | 21 | 0.0 | 4.8 | 0.00 | 0.46 | 0.46 | 79 | 1013.1 |
| 20260903175721 | 27 | 216 | 1.6 | 4.8 | 0.00 | 0.46 | 0.46 | 79 | 1013.3 |
| 20260903175214 | 26 | 341 | 1.6 | 8.0 | 0.00 | 0.46 | 0.46 | 79 | 1013.4 |
| 20260903174714 | 26 | 264 | 4.8 | 9.7 | 0.00 | 0.46 | 0.46 | 80 | 1013.3 |
| 20260903174209 | 27 | 298 | 0.0 | 3.2 | 0.00 | 0.46 | 0.46 | 78 | 1013.0 |
| 20260903173709 | 26 | 277 | 4.8 | 6.4 | 0.00 | 0.46 | 0.46 | 78 | 1013.3 |
| 20260903173206 | 26 | 99 | 0.0 | 3.2 | 0.00 | 0.46 | 0.46 | 80 | 1013.3 |
| 20260903172701 | 26 | 351 | 3.2 | 9.7 | 0.00 | 0.46 | 0.46 | 80 | 1013.5 |
| 20260903172156 | 26 | 359 | 1.6 | 4.8 | 0.00 | 0.46 | 0.46 | 80 | 1013.3 |
| 20260903171655 | 26 | 336 | 3.2 | 6.4 | 0.00 | 0.46 | 0.46 | 79 | 1013.6 |
| 20260903171147 | 26 | 347 | 1.6 | 4.8 | 0.00 | 0.46 | 0.46 | 80 | 1013.3 |
| 20260903170645 | 27 | 257 | 9.7 | 12.9 | 0.00 | 0.46 | 0.46 | 76 | 1013.4 |
| 20260903170141 | 27 | 317 | 3.2 | 4.8 | 0.00 | 0.46 | 0.46 | 82 | 1013.3 |
| 20260903165638 | 27 | 168 | 0.0 | 1.6 | 0.00 | 0.46 | 0.46 | 77 | 1013.5 |
| 20260903165133 | 26 | 338 | 3.2 | 11.3 | 0.00 | 0.46 | 0.46 | 79 | 1013.4 |
| 20260903164627 | 26 | 266 | 6.4 | 8.0 | 0.00 | 0.46 | 0.46 | 79 | 1013.6 |
| 20260903164124 | 26 | 320 | 4.8 | 4.8 | 0.00 | 0.46 | 0.46 | 81 | 1013.6 |
| 20260903163619 | 26 | 87 | 3.2 | 9.7 | 0.00 | 0.46 | 0.46 | 82 | 1013.6 |
| 20260903163115 | 27 | 246 | 3.2 | 4.8 | 0.00 | 0.46 | 0.46 | 79 | 1013.7 |
| 20260903162611 | 26 | 83 | 3.2 | 4.8 | 0.00 | 0.46 | 0.46 | 84 | 1013.6 |
| 20260903162107 | 26 | 349 | 6.4 | 6.4 | 0.00 | 0.46 | 0.46 | 83 | 1013.7 |
| 20260903161602 | 25 | 27 | 3.2 | 4.8 | 0.00 | 0.46 | 0.46 | 84 | 1013.7 |
| 20260903161057 | 25 | 245 | 1.6 | 6.4 | 0.00 | 0.46 | 0.46 | 84 | 1014.0 |
| 20260903160556 | 25 | 156 | 0.0 | 3.2 | 0.00 | 0.46 | 0.46 | 84 | 1013.9 |
| 20260903160051 | 25 | 253 | 6.4 | 9.7 | 0.00 | 0.46 | 0.46 | 85 | 1013.8 |
| 20260903155550 | 25 | 343 | 0.0 | 3.2 | 0.00 | 0.46 | 0.46 | 87 | 1013.9 |
| 20260903155046 | 24 | 2 | 0.0 | 6.4 | 0.00 | 0.46 | 0.46 | 86 | 1014.2 |
| 20260903154542 | 23 | 2 | 3.2 | 4.8 | 0.00 | 0.46 | 0.46 | 89 | 1014.3 |
| 20260903154038 | 24 | 48 | 1.6 | 3.2 | 0.00 | 0.46 | 0.46 | 88 | 1014.2 |
| 20260903153533 | 24 | 4 | 3.2 | 4.8 | 0.00 | 0.46 | 0.46 | 90 | 1014.5 |
| 20260903153029 | 24 | 264 | 0.0 | 3.2 | 0.00 | 0.46 | 0.46 | 88 | 1014.4 |
| 20260903152525 | 23 | 289 | 1.6 | 3.2 | 0.00 | 0.46 | 0.46 | 89 | 1014.5 |
| 20260903152021 | 23 | 240 | 1.6 | 4.8 | 0.00 | 0.46 | 0.46 | 89 | 1014.5 |
| 20260903151519 | 23 | 228 | 4.8 | 8.0 | 0.00 | 0.46 | 0.46 | 88 | 1014.5 |
| 20260903151014 | 23 | 25 | 0.0 | 4.8 | 0.00 | 0.46 | 0.46 | 91 | 1014.3 |
| 20260903150509 | 22 | 285 | 3.2 | 8.0 | 0.00 | 0.46 | 0.46 | 91 | 1014.5 |
| 20260903150004 | 22 | 201 | 1.6 | 3.2 | 0.00 | 0.46 | 0.46 | 91 | 1014.6 |
| 20260903145459 | 22 | 6 | 0.0 | 4.8 | 0.00 | 0.46 | 0.46 | 92 | 1014.5 |
| 20260903144954 | 22 | 140 | 1.6 | 3.2 | 0.00 | 0.46 | 0.46 | 93 | 1014.3 |
| 20260903144453 | 22 | 210 | 3.2 | 6.4 | 0.00 | 0.46 | 0.46 | 92 | 1014.4 |
| 20260903143949 | 22 | 220 | 6.4 | 6.4 | 0.00 | 0.46 | 0.46 | 92 | 1014.5 |
| 20260903143446 | 22 | 185 | 1.6 | 4.8 | 0.00 | 0.46 | 0.46 | 93 | 1014.4 |
| 20260903142941 | 22 | 290 | 0.0 | 4.8 | 0.00 | 0.46 | 0.46 | 93 | 1014.5 |
| 20260903142436 | 22 | 219 | 0.0 | 3.2 | 0.00 | 0.46 | 0.46 | 93 | 1014.4 |
| 20260903141932 | 22 | 185 | 1.6 | 4.8 | 0.00 | 0.46 | 0.46 | 94 | 1014.3 |
| 20260903141428 | 21 | 110 | 1.6 | 4.8 | 0.00 | 0.46 | 0.46 | 94 | 1014.5 |
| 20260903140924 | 21 | 269 | 6.4 | 9.7 | 0.00 | 0.46 | 0.46 | 94 | 1014.5 |
| 20260903140419 | 21 | 235 | 3.2 | 3.2 | 0.00 | 0.46 | 0.46 | 94 | 1014.2 |
| 20260903135914 | 21 | 171 | 0.0 | 3.2 | 0.00 | 0.46 | 0.46 | 95 | 1014.4 |
| 20260903135410 | 21 | 301 | 0.0 | 4.8 | 0.00 | 0.46 | 0.46 | 95 | 1014.5 |
| 20260903134908 | 21 | 144 | 3.2 | 3.2 | 0.00 | 0.46 | 0.46 | 96 | 1014.4 |
| 20260903134403 | 21 | 156 | 0.0 | 3.2 | 0.00 | 0.46 | 0.46 | 95 | 1014.4 |
| 20260903133901 | 22 | 263 | 1.6 | 4.8 | 0.00 | 0.46 | 0.46 | 94 | 1014.2 |
| 20260903133357 | 22 | 251 | 3.2 | 9.7 | 0.00 | 0.46 | 0.46 | 94 | 1014.2 |
| 20260903132857 | 22 | 223 | 8.0 | 8.0 | 0.00 | 0.46 | 0.46 | 95 | 1014.2 |
| 20260903132353 | 22 | 215 | 0.0 | 0.0 | 0.00 | 0.46 | 0.46 | 96 | 1014.2 |
| 20260903131852 | 21 | 238 | 3.2 | 6.4 | 0.00 | 0.46 | 0.46 | 95 | 1014.0 |
| 20260903131347 | 21 | 194 | 1.6 | 3.2 | 0.00 | 0.46 | 0.46 | 99 | 1014.2 |
| 20260903130846 | 21 | 138 | 0.0 | 3.2 | 0.00 | 0.46 | 0.46 | 99 | 1014.4 |
| 20260903130341 | 21 | 172 | 1.6 | 3.2 | 0.00 | 0.46 | 0.46 | 99 | 1014.3 |
| 20260903125839 | 20 | 157 | 3.2 | 3.2 | 0.00 | 0.46 | 0.46 | 99 | 1014.4 |
| 20260903125335 | 20 | 220 | 0.0 | 3.2 | 0.00 | 0.46 | 0.46 | 99 | 1014.4 |
| 20260903124834 | 20 | 156 | 0.0 | 3.2 | 0.00 | 0.46 | 0.46 | 99 | 1014.5 |
| 20260903124330 | 20 | 165 | 1.6 | 3.2 | 0.00 | 0.46 | 0.46 | 99 | 1014.2 |
| 20260903123828 | 19 | 181 | 1.6 | 1.6 | 0.00 | 0.46 | 0.46 | 99 | 1014.6 |
| 20260903123323 | 20 | 230 | 0.0 | 3.2 | 0.00 | 0.46 | 0.46 | 99 | 1014.9 |
| 20260903122821 | 20 | 230 | 0.0 | 1.6 | 0.00 | 0.46 | 0.46 | 99 | 1014.5 |
| 20260903122317 | 19 | 304 | 0.0 | 1.6 | 0.00 | 0.46 | 0.46 | 99 | 1014.5 |
| 20260903121814 | 19 | 269 | 0.0 | 0.0 | 0.00 | 0.46 | 0.46 | 99 | 1014.4 |
| 20260903121311 | 19 | 299 | 0.0 | 0.0 | 0.00 | 0.46 | 0.46 | 99 | 1014.4 |
| 20260903120806 | 19 | 269 | 0.0 | 0.0 | 0.00 | 0.46 | 0.46 | 99 | 1014.1 |
| 20260903120300 | 19 | 293 | 0.0 | 1.6 | 0.00 | 0.46 | 0.46 | 99 | 1014.1 |
| 20260903115758 | 19 | 89 | 0.0 | 0.0 | 0.00 | 0.46 | 0.46 | 99 | 1014.1 |
| 20260903115254 | 19 | 89 | 0.0 | 1.6 | 0.00 | 0.46 | 0.46 | 99 | 1014.1 |
| 20260903114748 | 18 | 269 | 0.0 | 1.6 | 0.00 | 0.46 | 0.46 | 99 | 1014.1 |
| 20260903114244 | 18 | 313 | 0.0 | 1.6 | 0.00 | 0.46 | 0.46 | 99 | 1014.2 |
| 20260903113739 | 18 | 89 | 0.0 | 1.6 | 0.00 | 0.46 | 0.46 | 99 | 1014.1 |
| 20260903113235 | 17 | 199 | 0.0 | 1.6 | 0.00 | 0.46 | 0.46 | 99 | 1014.2 |
| 20260903112731 | 17 | 283 | 0.0 | 1.6 | 0.00 | 0.46 | 0.46 | 99 | 1014.1 |
| 20260903112226 | 17 | 319 | 1.6 | 3.2 | 0.00 | 0.46 | 0.46 | 99 | 1013.9 |
| 20260903111725 | 17 | 330 | 3.2 | 3.2 | 0.00 | 0.46 | 0.46 | 99 | 1013.8 |
| 20260903111220 | 17 | 294 | 0.0 | 1.6 | 0.00 | 0.46 | 0.46 | 99 | 1013.9 |
| 20260903110716 | 17 | 330 | 0.0 | 1.6 | 0.00 | 0.46 | 0.46 | 99 | 1013.8 |
| 20260903110212 | 17 | 280 | 0.0 | 1.6 | 0.00 | 0.46 | 0.46 | 99 | 1013.6 |
| 20260903105711 | 17 | 269 | 0.0 | 1.6 | 0.00 | 0.46 | 0.46 | 99 | 1013.7 |
| 20260903105207 | 17 | 283 | 0.0 | 1.6 | 0.00 | 0.46 | 0.46 | 99 | 1013.6 |
| 20260903104706 | 17 | 302 | 1.6 | 1.6 | 0.00 | 0.46 | 0.46 | 99 | 1013.9 |
| 20260903104202 | 17 | 309 | 0.0 | 3.2 | 0.00 | 0.46 | 0.46 | 99 | 1013.8 |
| 20260903103657 | 17 | 321 | 1.6 | 3.2 | 0.00 | 0.46 | 0.46 | 99 | 1013.9 |
| 20260903103154 | 17 | 300 | 1.6 | 3.2 | 0.00 | 0.46 | 0.46 | 99 | 1013.9 |
| 20260903102653 | 17 | 29 | 0.0 | 3.2 | 0.00 | 0.46 | 0.46 | 99 | 1013.6 |
| 20260903102148 | 17 | 332 | 3.2 | 3.2 | 0.00 | 0.46 | 0.46 | 99 | 1013.9 |
| 20260903101647 | 17 | 322 | 0.0 | 1.6 | 0.00 | 0.46 | 0.46 | 99 | 1013.7 |
| 20260903101143 | 18 | 294 | 1.6 | 1.6 | 0.00 | 0.46 | 0.46 | 99 | 1013.9 |
| 20260903100638 | 18 | 335 | 1.6 | 3.2 | 0.00 | 0.46 | 0.46 | 99 | 1013.9 |
| 20260903100137 | 18 | 299 | 0.0 | 1.6 | 0.00 | 0.46 | 0.46 | 99 | 1013.9 |
| 20260903095634 | 18 | 352 | 0.0 | 3.2 | 0.00 | 0.46 | 0.46 | 99 | 1013.9 |
| 20260903095129 | 18 | 335 | 1.6 | 3.2 | 0.00 | 0.46 | 0.46 | 99 | 1013.8 |
| 20260903094624 | 18 | 301 | 0.0 | 0.0 | 0.00 | 0.46 | 0.46 | 99 | 1014.2 |
| 20260903094119 | 18 | 309 | 0.0 | 3.2 | 0.00 | 0.46 | 0.46 | 99 | 1014.0 |
| 20260903093614 | 18 | 287 | 3.2 | 3.2 | 0.05 | 0.46 | 0.46 | 99 | 1013.8 |
| 20260903093110 | 18 | 239 | 3.2 | 3.2 | 0.00 | 0.46 | 0.46 | 99 | 1014.1 |
| 20260903092609 | 18 | 299 | 0.0 | 1.6 | 0.00 | 0.46 | 0.46 | 99 | 1014.2 |
| 20260903092104 | 18 | 329 | 1.6 | 3.2 | 0.00 | 0.46 | 0.46 | 99 | 1014.4 |
| 20260903091602 | 18 | 38 | 0.0 | 1.6 | 0.84 | 0.46 | 0.46 | 99 | 1014.0 |
| 20260903091057 | 18 | 82 | 0.0 | 3.2 | 1.02 | 0.46 | 0.46 | 99 | 1014.2 |
| 20260903090553 | 18 | 248 | 3.2 | 3.2 | 0.05 | 0.30 | 0.30 | 99 | 1014.4 |
| 20260903090051 | 18 | 45 | 1.6 | 3.2 | 0.00 | 0.28 | 0.28 | 99 | 1014.3 |
| 20260903085550 | 18 | 287 | 0.0 | 3.2 | 0.00 | 0.28 | 0.28 | 99 | 1014.0 |
| 20260903085046 | 18 | 250 | 3.2 | 3.2 | 0.00 | 0.28 | 0.28 | 99 | 1014.0 |
| 20260903084544 | 18 | 287 | 3.2 | 3.2 | 0.00 | 0.28 | 0.28 | 99 | 1013.9 |
| 20260903084039 | 18 | 318 | 3.2 | 4.8 | 0.00 | 0.28 | 0.28 | 99 | 1013.9 |
| 20260903083535 | 18 | 301 | 3.2 | 3.2 | 0.00 | 0.28 | 0.28 | 99 | 1013.8 |
| 20260903083034 | 18 | 348 | 3.2 | 3.2 | 0.00 | 0.28 | 0.28 | 99 | 1013.5 |
| 20260903082528 | 18 | 352 | 0.0 | 0.0 | 0.00 | 0.28 | 0.28 | 99 | 1013.9 |
| 20260903082024 | 18 | 64 | 0.0 | 1.6 | 0.00 | 0.28 | 0.28 | 99 | 1014.2 |
| 20260903081519 | 18 | 351 | 0.0 | 3.2 | 0.00 | 0.28 | 0.28 | 99 | 1014.2 |
| 20260903081015 | 18 | 147 | 0.0 | 1.6 | 0.00 | 0.28 | 0.28 | 99 | 1014.0 |
| 20260903080511 | 18 | 345 | 0.0 | 0.0 | 0.00 | 0.28 | 0.28 | 99 | 1014.0 |
| 20260903080008 | 18 | 309 | 0.0 | 3.2 | 0.00 | 0.28 | 0.28 | 99 | 1013.9 |
| 20260903075502 | 18 | 188 | 0.0 | 0.0 | 0.00 | 0.28 | 0.28 | 99 | 1013.9 |
| 20260903074957 | 18 | 157 | 0.0 | 1.6 | 0.00 | 0.28 | 0.28 | 99 | 1013.8 |
| 20260903074456 | 18 | 0 | 0.0 | 1.6 | 0.00 | 0.28 | 0.28 | 99 | 1014.3 |
| 20260903073952 | 18 | 283 | 0.0 | 3.2 | 0.00 | 0.28 | 0.28 | 99 | 1014.1 |
| 20260903073447 | 18 | 230 | 1.6 | 3.2 | 0.00 | 0.28 | 0.28 | 99 | 1014.2 |
| 20260903072942 | 18 | 293 | 0.0 | 0.0 | 0.00 | 0.28 | 0.28 | 99 | 1014.3 |
| 20260903072438 | 18 | 66 | 0.0 | 1.6 | 0.00 | 0.28 | 0.28 | 99 | 1014.2 |
| 20260903071935 | 18 | 68 | 0.0 | 1.6 | 0.00 | 0.28 | 0.28 | 99 | 1014.1 |
| 20260903071431 | 18 | 16 | 1.6 | 3.2 | 0.00 | 0.28 | 0.28 | 99 | 1013.9 |
| 20260903070926 | 18 | 58 | 1.6 | 3.2 | 0.00 | 0.28 | 0.28 | 99 | 1014.0 |
| 20260903070425 | 18 | 18 | 3.2 | 3.2 | 0.00 | 0.28 | 0.28 | 99 | 1013.9 |
| 20260903065920 | 18 | 14 | 1.6 | 3.2 | 0.00 | 0.28 | 0.28 | 99 | 1014.0 |
| 20260903065415 | 18 | 61 | 1.6 | 3.2 | 0.00 | 0.28 | 0.28 | 99 | 1013.8 |
| 20260903064914 | 18 | 117 | 3.2 | 4.8 | 0.00 | 0.28 | 0.28 | 99 | 1014.3 |
| 20260903064410 | 18 | 269 | 0.0 | 3.2 | 0.00 | 0.28 | 0.28 | 99 | 1014.4 |
| 20260903063906 | 18 | 50 | 0.0 | 1.6 | 0.00 | 0.28 | 0.28 | 99 | 1014.0 |
| 20260903063401 | 18 | 37 | 0.0 | 3.2 | 0.00 | 0.28 | 0.28 | 99 | 1014.0 |
| 20260903062856 | 18 | 17 | 3.2 | 3.2 | 0.00 | 0.28 | 0.28 | 99 | 1014.2 |
| 20260903062355 | 18 | 328 | 3.2 | 4.8 | 0.00 | 0.28 | 0.28 | 99 | 1014.3 |
| 20260903061852 | 18 | 322 | 1.6 | 3.2 | 0.00 | 0.28 | 0.28 | 99 | 1014.2 |
| 20260903061351 | 18 | 288 | 3.2 | 3.2 | 0.00 | 0.28 | 0.28 | 99 | 1014.4 |
| 20260903060847 | 18 | 29 | 0.0 | 3.2 | 0.00 | 0.28 | 0.28 | 99 | 1014.5 |
| 20260903060346 | 18 | 19 | 3.2 | 3.2 | 0.00 | 0.28 | 0.28 | 99 | 1014.9 |
| 20260903055844 | 18 | 23 | 1.6 | 3.2 | 0.00 | 0.28 | 0.28 | 99 | 1015.1 |
| 20260903055342 | 18 | 66 | 0.0 | 1.6 | 0.00 | 0.28 | 0.28 | 99 | 1014.9 |
| 20260903054838 | 18 | 355 | 1.6 | 3.2 | 0.00 | 0.28 | 0.28 | 99 | 1014.7 |
| 20260903054338 | 18 | 24 | 3.2 | 3.2 | 0.00 | 0.28 | 0.28 | 99 | 1014.2 |
| 20260903053834 | 18 | 86 | 1.6 | 3.2 | 0.00 | 0.28 | 0.28 | 99 | 1014.3 |
| 20260903053329 | 18 | 333 | 0.0 | 3.2 | 0.00 | 0.28 | 0.28 | 99 | 1014.4 |
| 20260903052825 | 18 | 89 | 0.0 | 3.2 | 0.00 | 0.28 | 0.28 | 99 | 1014.4 |
| 20260903052320 | 18 | 89 | 0.0 | 3.2 | 0.00 | 0.28 | 0.28 | 99 | 1014.3 |
| 20260903051816 | 18 | 269 | 0.0 | 1.6 | 0.00 | 0.28 | 0.28 | 99 | 1014.4 |
| 20260903051311 | 18 | 92 | 4.8 | 6.4 | 0.00 | 0.28 | 0.28 | 99 | 1014.4 |
| 20260903050807 | 18 | 275 | 1.6 | 3.2 | 0.00 | 0.28 | 0.28 | 99 | 1014.6 |
| 20260903050306 | 18 | 309 | 6.4 | 6.4 | 0.00 | 0.28 | 0.28 | 99 | 1014.7 |
| 20260903045800 | 18 | 346 | 3.2 | 3.2 | 0.05 | 0.28 | 0.28 | 99 | 1014.5 |
| 20260903045256 | 18 | 184 | 3.2 | 9.7 | 0.13 | 0.28 | 0.28 | 99 | 1014.7 |
| 20260903044753 | 18 | 269 | 0.0 | 4.8 | 0.13 | 0.28 | 0.28 | 99 | 1014.9 |
| 20260903044247 | 18 | 136 | 6.4 | 9.7 | 0.30 | 0.28 | 0.28 | 99 | 1014.6 |
| 20260903043744 | 18 | 285 | 8.0 | 14.5 | 0.36 | 0.25 | 0.25 | 99 | 1014.5 |
| 20260903043244 | 18 | 94 | 0.0 | 3.2 | 0.30 | 0.23 | 0.23 | 99 | 1015.0 |
| 20260903042743 | 18 | 245 | 0.0 | 8.0 | 0.30 | 0.18 | 0.18 | 99 | 1015.6 |
| 20260903042238 | 18 | 281 | 3.2 | 8.0 | 0.48 | 0.15 | 0.15 | 99 | 1015.7 |
| 20260903041734 | 18 | 172 | 1.6 | 6.4 | 0.53 | 0.13 | 0.13 | 99 | 1016.2 |
| 20260903041230 | 18 | 328 | 0.0 | 4.8 | 0.48 | 0.08 | 0.08 | 99 | 1016.3 |
| 20260903040724 | 18 | 97 | 3.2 | 3.2 | 0.30 | 0.03 | 0.03 | 99 | 1016.8 |
| 20260903040219 | 19 | 261 | 1.6 | 3.2 | 0.79 | 0.00 | 0.00 | 99 | 1016.6 |
| 20260903035715 | 19 | 13 | 3.2 | 11.3 | 2.39 | 2.29 | 2.29 | 99 | 1017.0 |
| 20260903035205 | 19 | 8 | 3.2 | 8.0 | 1.98 | 2.18 | 2.18 | 99 | 1017.2 |
| 20260903034700 | 19 | 18 | 6.4 | 9.7 | 0.30 | 1.88 | 1.88 | 99 | 1016.6 |
| 20260903034154 | 19 | 291 | 4.8 | 6.4 | 0.13 | 1.85 | 1.85 | 99 | 1015.9 |
| 20260903033649 | 19 | 280 | 9.7 | 9.7 | 0.13 | 1.83 | 1.83 | 99 | 1015.1 |
| 20260903033144 | 19 | 2 | 1.6 | 3.2 | 0.23 | 1.83 | 1.83 | 99 | 1014.3 |
| 20260903032639 | 19 | 121 | 3.2 | 3.2 | 0.30 | 1.80 | 1.80 | 99 | 1014.6 |
| 20260903032134 | 19 | 252 | 0.0 | 3.2 | 0.30 | 1.78 | 1.78 | 99 | 1015.0 |
| 20260903031630 | 20 | 72 | 1.6 | 3.2 | 0.36 | 1.75 | 1.75 | 99 | 1015.2 |
| 20260903031130 | 20 | 345 | 0.0 | 1.6 | 0.43 | 1.73 | 1.73 | 99 | 1015.3 |
| 20260903030626 | 19 | 26 | 0.0 | 4.8 | 0.48 | 1.70 | 1.70 | 99 | 1015.3 |
| 20260903030121 | 19 | 337 | 0.0 | 6.4 | 0.61 | 1.65 | 1.65 | 99 | 1015.2 |
| 20260903025616 | 20 | 54 | 1.6 | 3.2 | 0.61 | 1.60 | 1.60 | 99 | 1015.4 |
| 20260903025113 | 19 | 283 | 0.0 | 3.2 | 0.53 | 1.55 | 1.55 | 99 | 1015.7 |
| 20260903024613 | 19 | 19 | 3.2 | 3.2 | 0.53 | 1.50 | 1.50 | 99 | 1016.2 |
| 20260903024107 | 19 | 11 | 0.0 | 3.2 | 0.61 | 1.45 | 1.45 | 99 | 1016.7 |
| 20260903023603 | 19 | 103 | 1.6 | 3.2 | 0.61 | 1.42 | 1.42 | 99 | 1017.0 |
| 20260903023057 | 19 | 224 | 0.0 | 3.2 | 0.66 | 1.37 | 1.37 | 99 | 1016.8 |
| 20260903022557 | 19 | 313 | 3.2 | 4.8 | 0.53 | 1.30 | 1.30 | 99 | 1016.7 |
| 20260903022056 | 18 | 256 | 3.2 | 6.4 | 0.36 | 1.22 | 1.22 | 99 | 1016.3 |
| 20260903021550 | 18 | 136 | 0.0 | 4.8 | 0.36 | 1.19 | 1.19 | 99 | 1016.5 |
| 20260903021045 | 19 | 41 | 1.6 | 3.2 | 0.43 | 1.17 | 1.17 | 99 | 1016.6 |
| 20260903020541 | 19 | 118 | 4.8 | 9.7 | 3.35 | 1.14 | 1.14 | 99 | 1016.3 |
| 20260903020040 | 19 | 29 | 1.6 | 11.3 | 3.53 | 1.09 | 1.09 | 99 | 1016.8 |
| 20260903015536 | 20 | 318 | 6.4 | 17.7 | 1.07 | 0.69 | 0.69 | 99 | 1018.0 |
| 20260903015031 | 20 | 9 | 9.7 | 14.5 | 0.00 | 0.51 | 0.51 | 99 | 1017.6 |
| 20260903014530 | 20 | 49 | 3.2 | 3.2 | 0.00 | 0.51 | 0.51 | 99 | 1016.3 |
| 20260903014026 | 20 | 0 | 3.2 | 4.8 | 0.05 | 0.51 | 0.51 | 99 | 1016.1 |
| 20260903013525 | 20 | 285 | 1.6 | 3.2 | 0.13 | 0.51 | 0.51 | 99 | 1015.8 |
| 20260903013020 | 21 | 312 | 0.0 | 4.8 | 0.13 | 0.51 | 0.51 | 99 | 1015.6 |
| 20260903012519 | 21 | 264 | 0.0 | 1.6 | 0.13 | 0.48 | 0.48 | 99 | 1016.1 |
| 20260903012018 | 21 | 247 | 1.6 | 3.2 | 0.18 | 0.48 | 0.48 | 99 | 1016.1 |
| 20260903011513 | 21 | 223 | 4.8 | 8.0 | 0.18 | 0.46 | 0.46 | 99 | 1016.0 |
| 20260903011009 | 21 | 269 | 6.4 | 6.4 | 0.05 | 0.46 | 0.46 | 98 | 1015.7 |
| 20260903010504 | 21 | 224 | 1.6 | 9.7 | 0.00 | 0.43 | 0.43 | 98 | 1015.7 |
| 20260903010002 | 21 | 230 | 4.8 | 6.4 | 0.00 | 0.43 | 0.43 | 98 | 1015.7 |
| 20260903005456 | 21 | 225 | 4.8 | 4.8 | 0.00 | 0.43 | 0.43 | 98 | 1015.3 |
| 20260903004952 | 21 | 237 | 6.4 | 8.0 | 0.00 | 0.43 | 0.43 | 98 | 1015.2 |
| 20260903004447 | 21 | 186 | 3.2 | 6.4 | 0.05 | 0.43 | 0.43 | 98 | 1014.7 |
| 20260903003943 | 21 | 115 | 4.8 | 4.8 | 0.13 | 0.43 | 0.43 | 97 | 1014.9 |
| 20260903003442 | 21 | 132 | 4.8 | 8.0 | 0.05 | 0.43 | 0.43 | 96 | 1015.2 |
| 20260903002937 | 21 | 48 | 6.4 | 6.4 | 0.00 | 0.43 | 0.43 | 96 | 1014.9 |
| 20260903002427 | 21 | 165 | 6.4 | 6.4 | 0.00 | 0.43 | 0.43 | 96 | 1014.9 |
| 20260903001926 | 21 | 28 | 3.2 | 4.8 | 0.00 | 0.43 | 0.43 | 96 | 1015.1 |
| 20260903001426 | 21 | 321 | 3.2 | 6.4 | 0.00 | 0.43 | 0.43 | 95 | 1015.2 |